createdAt,value
2023-03-11T00:01:17.089Z,69.35
2023-03-11T00:03:47.437Z,69.32
2023-03-11T00:06:17.010Z,69.25
2023-03-11T00:08:45.290Z,69.40
2023-03-11T00:11:14.266Z,69.33
2023-03-11T00:13:43.040Z,69.52
2023-03-11T00:16:13.575Z,69.47
2023-03-11T00:18:42.167Z,69.63
2023-03-11T00:21:17.537Z,69.69
2023-03-11T00:23:47.014Z,69.86
2023-03-11T00:26:15.424Z,69.94
2023-03-11T00:28:45.912Z,70.11
2023-03-11T00:31:14.672Z,70.21
2023-03-11T00:33:48.704Z,70.40
2023-03-11T00:36:34.007Z,70.44
2023-03-11T00:39:07.950Z,70.70
2023-03-11T00:41:37.065Z,70.69
2023-03-11T00:44:08.290Z,70.89
2023-03-11T00:46:37.362Z,70.80
2023-03-11T00:49:10.870Z,70.75
2023-03-11T00:51:42.236Z,70.89
2023-03-11T00:54:11.114Z,70.79
2023-03-11T00:56:42.881Z,70.91
2023-03-11T00:59:11.752Z,71.19
2023-03-11T01:01:40.253Z,71.14
2023-03-11T01:04:08.386Z,71.07
2023-03-11T01:06:45.219Z,70.90
2023-03-11T01:09:43.113Z,70.98
2023-03-11T01:12:29.398Z,70.88
2023-03-11T01:14:57.954Z,70.83
2023-03-11T01:17:26.603Z,70.80
2023-03-11T01:19:59.885Z,70.74
2023-03-11T01:22:28.627Z,70.80
2023-03-11T01:24:57.150Z,70.76
2023-03-11T01:27:25.639Z,70.67
2023-03-11T01:29:54.028Z,70.81
2023-03-11T01:32:23.055Z,70.88
2023-03-11T01:34:51.966Z,71.01
2023-03-11T01:37:20.731Z,70.96
2023-03-11T01:39:49.977Z,71.04
2023-03-11T01:42:18.443Z,71.00
2023-03-11T01:44:47.106Z,70.86
2023-03-11T01:47:36.710Z,70.88
2023-03-11T01:50:11.234Z,71.00
2023-03-11T01:52:43.062Z,71.04
2023-03-11T01:55:15.108Z,70.98
2023-03-11T01:57:49.020Z,71.03
2023-03-11T02:00:20.867Z,71.07
2023-03-11T02:02:59.217Z,71.23
2023-03-11T02:05:28.259Z,71.39
2023-03-11T02:07:58.089Z,71.46
2023-03-11T02:10:30.935Z,71.42
2023-03-11T02:13:00.437Z,71.51
2023-03-11T02:15:30.272Z,71.59
2023-03-11T02:18:05.035Z,71.53
2023-03-11T02:21:27.040Z,71.46
2023-03-11T02:24:25.333Z,71.50
2023-03-11T02:27:12.578Z,71.43
2023-03-11T02:29:44.208Z,71.41
2023-03-11T02:32:15.599Z,71.39
2023-03-11T02:34:45.684Z,71.32
2023-03-11T02:37:17.376Z,71.12
2023-03-11T02:39:55.501Z,70.99
2023-03-11T02:42:32.302Z,71.01
2023-03-11T02:45:18.800Z,71.07
2023-03-11T02:47:52.912Z,70.97
2023-03-11T02:50:25.487Z,71.00
2023-03-11T02:52:59.425Z,71.05
2023-03-11T02:55:27.840Z,71.04
2023-03-11T02:57:56.689Z,70.95
2023-03-11T03:00:28.677Z,70.90
2023-03-11T03:03:10.997Z,71.02
2023-03-11T03:05:43.322Z,71.03
2023-03-11T03:08:12.314Z,70.98
2023-03-11T03:10:40.986Z,70.95
2023-03-11T03:13:11.968Z,70.73
2023-03-11T03:15:40.617Z,70.75
2023-03-11T03:18:11.902Z,70.82
2023-03-11T03:20:40.507Z,70.76
2023-03-11T03:23:09.560Z,70.74
2023-03-11T03:25:43.788Z,70.73
2023-03-11T03:28:16.252Z,70.78
2023-03-11T03:30:50.067Z,70.77
2023-03-11T03:33:18.902Z,70.59
2023-03-11T03:35:47.647Z,70.56
2023-03-11T03:38:26.808Z,70.44
2023-03-11T03:40:55.521Z,70.38
2023-03-11T03:43:24.265Z,70.43
2023-03-11T03:46:04.682Z,70.48
2023-03-11T03:48:39.111Z,70.41
2023-03-11T03:51:11.585Z,70.35
2023-03-11T03:53:46.244Z,70.38
2023-03-11T03:56:18.208Z,70.31
2023-03-11T03:58:46.922Z,70.09
2023-03-11T04:01:17.823Z,70.06
2023-03-11T04:03:46.601Z,69.99
2023-03-11T04:06:18.886Z,69.93
2023-03-11T04:08:48.441Z,69.97
2023-03-11T04:11:17.425Z,69.94
2023-03-11T04:13:46.388Z,70.02
2023-03-11T04:16:23.654Z,70.01
2023-03-11T04:18:54.181Z,69.82
2023-03-11T04:21:24.143Z,69.76
2023-03-11T04:23:52.803Z,69.69
2023-03-11T04:26:22.141Z,69.37
2023-03-11T04:28:53.184Z,69.22
2023-03-11T04:31:24.304Z,69.16
2023-03-11T04:33:56.228Z,69.01
2023-03-11T04:36:25.377Z,69.13
2023-03-11T04:38:57.548Z,69.10
2023-03-11T04:41:28.320Z,69.25
2023-03-11T04:43:59.207Z,68.98
2023-03-11T04:46:32.627Z,69.21
2023-03-11T04:49:04.519Z,69.28
2023-03-11T04:51:34.709Z,69.33
2023-03-11T04:54:03.418Z,69.45
2023-03-11T04:56:35.739Z,69.56
2023-03-11T04:59:05.259Z,69.61
2023-03-11T05:01:44.215Z,69.85
2023-03-11T05:04:13.460Z,70.12
2023-03-11T05:06:43.019Z,70.29
2023-03-11T05:09:12.622Z,70.38
2023-03-11T05:11:41.769Z,70.04
2023-03-11T05:14:12.910Z,69.45
2023-03-11T05:16:42.203Z,69.46
2023-03-11T05:19:30.327Z,69.48
2023-03-11T05:21:59.205Z,69.64
2023-03-11T05:24:29.650Z,69.74
2023-03-11T05:26:58.920Z,70.02
2023-03-11T05:29:28.358Z,70.08
2023-03-11T05:31:56.974Z,70.22
2023-03-11T05:34:25.476Z,70.17
2023-03-11T05:36:53.739Z,70.29
2023-03-11T05:39:24.053Z,70.47
2023-03-11T05:41:56.284Z,70.55
2023-03-11T05:44:28.716Z,70.74
2023-03-11T05:47:00.608Z,70.90
2023-03-11T05:49:29.482Z,70.97
2023-03-11T05:52:00.223Z,70.97
2023-03-11T05:54:31.275Z,70.98
2023-03-11T05:57:00.107Z,71.38
2023-03-11T05:59:29.569Z,71.37
2023-03-11T06:02:05.006Z,71.26
2023-03-11T06:04:34.028Z,71.41
2023-03-11T06:07:04.250Z,71.39
2023-03-11T06:09:38.274Z,71.31
2023-03-11T06:12:12.270Z,71.58
2023-03-11T06:15:07.686Z,71.74
2023-03-11T06:17:44.018Z,71.79
2023-03-11T06:20:22.419Z,71.77
2023-03-11T06:22:51.769Z,71.71
2023-03-11T06:25:23.011Z,71.81
2023-03-11T06:27:52.986Z,71.73
2023-03-11T06:30:28.087Z,71.75
2023-03-11T06:33:02.766Z,71.87
2023-03-11T06:35:31.246Z,71.83
2023-03-11T06:38:00.108Z,71.75
2023-03-11T06:40:29.307Z,71.72
2023-03-11T06:42:58.424Z,71.81
2023-03-11T06:45:28.849Z,71.83
2023-03-11T06:47:58.539Z,72.01
2023-03-11T06:50:28.793Z,72.11
2023-03-11T06:52:59.940Z,72.07
2023-03-11T06:55:44.206Z,72.20
2023-03-11T06:58:13.599Z,72.31
2023-03-11T07:01:22.024Z,72.26
2023-03-11T07:04:11.279Z,72.17
2023-03-11T07:06:48.072Z,72.29
2023-03-11T07:09:28.916Z,72.68
2023-03-11T07:12:06.411Z,72.76
2023-03-11T07:14:39.550Z,72.75
2023-03-11T07:17:08.574Z,72.73
2023-03-11T07:19:54.032Z,72.62
2023-03-11T07:22:23.800Z,72.57
2023-03-11T07:24:52.695Z,72.33
2023-03-11T07:27:26.967Z,72.20
2023-03-11T07:29:55.977Z,72.19
2023-03-11T07:32:27.651Z,72.30
2023-03-11T07:34:56.248Z,72.09
2023-03-11T07:37:25.254Z,71.66
2023-03-11T07:40:01.604Z,71.76
2023-03-11T07:42:40.292Z,72.39
2023-03-11T07:45:23.502Z,72.56
2023-03-11T07:47:55.323Z,72.29
2023-03-11T07:50:26.985Z,72.15
2023-03-11T07:53:01.005Z,72.68
2023-03-11T07:55:29.381Z,72.04
2023-03-11T07:57:58.061Z,71.08
2023-03-11T08:00:26.914Z,70.91
2023-03-11T08:02:55.317Z,70.77
2023-03-11T08:05:23.858Z,71.02
2023-03-11T08:08:02.609Z,71.33
2023-03-11T08:10:40.686Z,71.47
2023-03-11T08:13:12.516Z,71.58
2023-03-11T08:15:54.023Z,71.94
2023-03-11T08:18:33.995Z,72.20
2023-03-11T08:21:08.568Z,72.29
2023-03-11T08:23:37.135Z,72.36
2023-03-11T08:26:11.583Z,72.51
2023-03-11T08:28:58.202Z,72.63
2023-03-11T08:31:46.399Z,72.89
2023-03-11T08:34:21.012Z,72.90
2023-03-11T08:36:55.319Z,72.92
2023-03-11T08:39:27.389Z,73.00
2023-03-11T08:42:11.393Z,73.24
2023-03-11T08:44:52.544Z,73.40
2023-03-11T08:47:25.046Z,73.44
2023-03-11T08:50:05.725Z,73.60
2023-03-11T08:52:58.363Z,73.35
2023-03-11T08:55:42.181Z,73.31
2023-03-11T08:58:27.726Z,73.43
2023-03-11T09:01:08.892Z,73.75
2023-03-11T09:03:50.756Z,73.67
2023-03-11T09:06:24.059Z,73.81
2023-03-11T09:08:59.322Z,73.90
2023-03-11T09:11:37.397Z,73.95
2023-03-11T09:14:06.329Z,74.04
2023-03-11T09:16:36.776Z,74.32
2023-03-11T09:19:08.336Z,74.34
2023-03-11T09:21:39.145Z,74.46
2023-03-11T09:24:33.286Z,74.57
2023-03-11T09:27:03.112Z,74.70
2023-03-11T09:29:39.543Z,74.78
2023-03-11T09:32:20.321Z,74.91
2023-03-11T09:34:57.755Z,74.98
2023-03-11T09:37:32.670Z,75.18
2023-03-11T09:40:01.741Z,75.17
2023-03-11T09:43:26.807Z,75.29
2023-03-11T09:46:14.976Z,75.28
2023-03-11T09:49:02.108Z,75.25
2023-03-11T09:51:42.587Z,75.41
2023-03-11T09:54:13.832Z,75.40
2023-03-11T09:56:45.009Z,75.44
2023-03-11T09:59:32.925Z,75.32
2023-03-11T10:02:04.922Z,75.41
2023-03-11T10:05:20.213Z,75.42
2023-03-11T10:08:14.620Z,75.40
2023-03-11T10:11:02.396Z,75.38
2023-03-11T10:13:56.220Z,75.34
2023-03-11T10:16:54.670Z,75.45
2023-03-11T10:19:43.822Z,75.37
2023-03-11T10:22:35.768Z,75.33
2023-03-11T10:25:29.450Z,75.36
2023-03-11T10:28:13.888Z,75.48
2023-03-11T10:31:01.382Z,75.42
2023-03-11T10:33:45.301Z,75.20
2023-03-11T10:36:26.966Z,75.06
2023-03-11T10:38:56.365Z,75.27
2023-03-11T10:41:55.408Z,75.25
2023-03-11T10:44:34.223Z,75.06
2023-03-11T10:47:06.468Z,75.10
2023-03-11T10:49:38.061Z,75.08
2023-03-11T10:52:07.315Z,75.21
2023-03-11T10:54:43.778Z,75.15
2023-03-11T10:57:35.917Z,75.16
2023-03-11T11:00:16.991Z,75.11
2023-03-11T11:02:57.859Z,75.09
2023-03-11T11:05:37.910Z,75.09
2023-03-11T11:08:13.117Z,74.85
2023-03-11T11:11:00.009Z,74.73
2023-03-11T11:13:36.327Z,75.06
2023-03-11T11:16:26.225Z,75.30
2023-03-11T11:19:15.077Z,74.98
2023-03-11T11:21:51.345Z,74.47
2023-03-11T11:24:28.963Z,74.64
2023-03-11T11:27:14.210Z,74.75
2023-03-11T11:29:48.245Z,74.65
2023-03-11T11:32:32.412Z,74.67
2023-03-11T11:35:16.141Z,74.63
2023-03-11T11:37:56.289Z,74.28
2023-03-11T11:40:36.133Z,73.95
2023-03-11T11:43:30.026Z,73.71
2023-03-11T11:46:12.447Z,73.68
2023-03-11T11:48:45.379Z,73.67
2023-03-11T11:52:01.986Z,73.34
2023-03-11T11:54:54.039Z,73.22
2023-03-11T11:57:32.157Z,73.45
2023-03-11T12:00:45.382Z,73.42
2023-03-11T12:04:06.914Z,73.31
2023-03-11T12:06:54.740Z,73.36
2023-03-11T12:10:22.785Z,73.71
2023-03-11T12:12:57.860Z,73.73
2023-03-11T12:15:38.304Z,73.33
2023-03-11T12:18:34.923Z,73.38
2023-03-11T12:21:42.115Z,73.45
2023-03-11T12:24:54.938Z,73.10
2023-03-11T12:27:49.725Z,72.50
2023-03-11T12:30:26.834Z,71.87
2023-03-11T12:33:05.032Z,71.53
2023-03-11T12:35:38.357Z,70.98
2023-03-11T12:38:13.356Z,70.95
2023-03-11T12:40:44.526Z,70.78
2023-03-11T12:43:33.015Z,70.40
2023-03-11T12:46:06.416Z,70.27
2023-03-11T12:48:49.994Z,70.22
2023-03-11T12:51:28.072Z,70.25
2023-03-11T12:54:33.229Z,69.55
2023-03-11T12:57:15.889Z,69.28
2023-03-11T13:00:17.697Z,69.04
2023-03-11T13:03:46.988Z,69.02
2023-03-11T13:06:33.255Z,69.15
2023-03-11T13:09:15.931Z,69.26
2023-03-11T13:11:50.874Z,69.21
2023-03-11T13:14:46.696Z,69.07
2023-03-11T13:17:39.963Z,69.32
2023-03-11T13:20:46.525Z,69.56
2023-03-11T13:23:28.884Z,69.63
2023-03-11T13:26:05.761Z,69.56
2023-03-11T13:29:02.025Z,69.52
2023-03-11T13:32:00.684Z,69.78
2023-03-11T13:34:50.715Z,69.87
2023-03-11T13:37:45.590Z,70.13
2023-03-11T13:40:44.410Z,70.33
2023-03-11T13:43:23.262Z,70.61
2023-03-11T13:46:27.958Z,70.65
2023-03-11T13:49:41.790Z,70.84
2023-03-11T13:52:48.067Z,70.99
2023-03-11T13:55:47.832Z,71.34
2023-03-11T13:58:25.032Z,71.45
2023-03-11T14:01:03.296Z,71.45
2023-03-11T14:03:44.940Z,71.24
2023-03-11T14:06:24.007Z,71.10
2023-03-11T14:08:59.792Z,70.77
2023-03-11T14:11:30.998Z,70.39
2023-03-11T14:14:50.942Z,70.43
2023-03-11T14:17:32.425Z,70.25
2023-03-11T14:20:18.824Z,70.11
2023-03-11T14:23:02.793Z,69.71
2023-03-11T14:25:36.762Z,69.54
2023-03-11T14:28:06.933Z,69.30
2023-03-11T14:31:00.980Z,69.47
2023-03-11T14:33:38.887Z,69.13
2023-03-11T14:36:16.206Z,69.11
2023-03-11T14:38:58.530Z,68.61
2023-03-11T14:41:37.142Z,68.58
2023-03-11T14:44:11.859Z,68.50
2023-03-11T14:46:45.333Z,68.24
2023-03-11T14:49:23.692Z,67.86
2023-03-11T14:52:13.798Z,67.66
2023-03-11T14:54:56.381Z,67.26
2023-03-11T14:57:44.465Z,66.59
2023-03-11T15:00:29.250Z,66.54
2023-03-11T15:03:19.285Z,66.50
2023-03-11T15:06:16.911Z,66.34
2023-03-11T15:09:06.758Z,66.15
2023-03-11T15:12:41.815Z,65.75
2023-03-11T15:15:32.481Z,65.16
2023-03-11T15:18:35.601Z,65.09
2023-03-11T15:21:20.756Z,64.78
2023-03-11T15:24:27.548Z,64.73
2023-03-11T15:27:35.323Z,64.67
2023-03-11T15:30:49.432Z,64.70
2023-03-11T15:33:55.654Z,64.77
2023-03-11T15:37:26.565Z,64.65
2023-03-11T15:40:45.289Z,64.43
2023-03-11T15:43:50.271Z,64.35
2023-03-11T15:47:01.589Z,64.18
2023-03-11T15:49:43.430Z,64.16
2023-03-11T15:53:26.573Z,64.04
2023-03-11T15:56:38.984Z,63.97
2023-03-11T15:59:18.300Z,63.72
2023-03-11T16:01:58.252Z,63.75
2023-03-11T16:04:28.070Z,63.76
2023-03-11T16:07:08.185Z,63.71
2023-03-11T16:09:47.165Z,63.57
2023-03-11T16:12:24.238Z,63.57
2023-03-11T16:14:56.120Z,63.50
2023-03-11T16:17:43.006Z,63.44
2023-03-11T16:20:29.183Z,63.44
2023-03-11T16:23:02.147Z,63.46
2023-03-11T16:25:41.047Z,63.28
2023-03-11T16:28:16.608Z,63.09
2023-03-11T16:30:50.334Z,62.96
2023-03-11T16:33:23.566Z,63.01
2023-03-11T16:36:00.145Z,63.02
2023-03-11T16:38:43.364Z,62.94
2023-03-11T16:41:20.399Z,62.57
2023-03-11T16:43:57.184Z,62.56
2023-03-11T16:46:38.693Z,62.50
2023-03-11T16:49:16.931Z,62.26
2023-03-11T16:51:49.274Z,62.13
2023-03-11T16:54:32.407Z,61.95
2023-03-11T16:57:41.270Z,61.85
2023-03-11T17:00:24.336Z,61.83
2023-03-11T17:03:01.183Z,61.78
2023-03-11T17:05:38.455Z,61.71
2023-03-11T17:08:19.645Z,61.70
2023-03-11T17:11:02.092Z,61.72
2023-03-11T17:13:42.519Z,61.72
2023-03-11T17:16:13.112Z,61.74
2023-03-11T17:18:45.491Z,61.67
2023-03-11T17:21:21.489Z,61.61
2023-03-11T17:24:12.926Z,61.58
2023-03-11T17:26:45.258Z,61.56
2023-03-11T17:29:23.512Z,61.51
2023-03-11T17:32:18.123Z,61.47
2023-03-11T17:35:11.522Z,61.45
2023-03-11T17:37:47.646Z,61.56
2023-03-11T17:40:31.806Z,61.57
2023-03-11T17:43:03.926Z,61.60
2023-03-11T17:45:42.253Z,61.77
2023-03-11T17:48:16.188Z,61.83
2023-03-11T17:50:50.190Z,62.15
2023-03-11T17:53:22.392Z,62.42
2023-03-11T17:55:54.572Z,62.62
2023-03-11T17:58:25.983Z,62.77
2023-03-11T18:00:55.607Z,63.07
2023-03-11T18:03:31.152Z,63.23
2023-03-11T18:06:05.996Z,63.53
2023-03-11T18:08:41.746Z,63.97
2023-03-11T18:11:34.058Z,64.16
2023-03-11T18:14:14.522Z,64.75
2023-03-11T18:17:03.885Z,64.93
2023-03-11T18:19:34.382Z,65.28
2023-03-11T18:22:12.935Z,65.59
2023-03-11T18:24:43.871Z,65.62
2023-03-11T18:27:24.741Z,65.82
2023-03-11T18:29:57.412Z,66.01
2023-03-11T18:32:27.990Z,66.12
2023-03-11T18:34:58.697Z,66.29
2023-03-11T18:37:36.817Z,66.49
2023-03-11T18:40:13.178Z,66.59
2023-03-11T18:42:42.572Z,66.66
2023-03-11T18:45:17.634Z,66.72
2023-03-11T18:47:52.227Z,66.84
2023-03-11T18:50:24.500Z,66.84
2023-03-11T18:52:53.997Z,66.85
2023-03-11T18:55:40.157Z,66.81
2023-03-11T18:58:19.971Z,66.82
2023-03-11T19:01:03.408Z,66.85
2023-03-11T19:03:38.932Z,66.81
2023-03-11T19:06:16.840Z,66.83
2023-03-11T19:08:51.038Z,66.77
2023-03-11T19:11:26.319Z,66.74
2023-03-11T19:13:59.980Z,66.70
2023-03-11T19:16:36.099Z,66.81
2023-03-11T19:19:15.583Z,66.70
2023-03-11T19:21:49.671Z,66.74
2023-03-11T19:24:26.241Z,66.70
2023-03-11T19:27:18.355Z,66.69
2023-03-11T19:29:54.839Z,66.61
2023-03-11T19:32:32.353Z,66.56
2023-03-11T19:35:09.286Z,66.41
2023-03-11T19:37:41.106Z,66.17
2023-03-11T19:40:11.577Z,66.18
2023-03-11T19:42:48.711Z,66.13
2023-03-11T19:45:42.195Z,65.99
2023-03-11T19:48:23.722Z,66.03
2023-03-11T19:50:58.412Z,66.03
2023-03-11T19:53:37.784Z,66.02
2023-03-11T19:56:13.330Z,65.98
2023-03-11T19:58:52.466Z,65.98
2023-03-11T20:01:32.370Z,65.96
2023-03-11T20:04:05.252Z,65.93
2023-03-11T20:10:13.208Z,66.07
2023-03-11T20:12:55.849Z,66.11
2023-03-11T20:15:35.888Z,66.25
2023-03-11T20:18:06.753Z,66.29
2023-03-11T20:20:50.134Z,66.31
2023-03-11T20:23:22.130Z,66.46
2023-03-11T20:25:55.320Z,66.51
2023-03-11T20:28:27.581Z,66.61
2023-03-11T20:31:01.639Z,66.76
2023-03-11T20:33:37.230Z,66.81
2023-03-11T20:36:18.570Z,66.86
2023-03-11T20:38:53.563Z,66.88
2023-03-11T20:41:27.259Z,66.94
2023-03-11T20:44:00.319Z,67.04
2023-03-11T20:46:39.689Z,67.10
2023-03-11T20:49:11.966Z,67.28
2023-03-11T20:51:41.936Z,67.40
2023-03-11T20:54:18.591Z,67.46
2023-03-11T20:56:51.132Z,67.44
2023-03-11T20:59:20.474Z,67.51
2023-03-11T21:01:51.749Z,67.53
2023-03-11T21:04:24.108Z,67.55
2023-03-11T21:06:55.134Z,67.55
2023-03-11T21:09:26.669Z,67.50
2023-03-11T21:12:05.899Z,67.61
2023-03-11T21:14:35.157Z,67.72
2023-03-11T21:17:06.179Z,67.78
2023-03-11T21:19:34.742Z,67.94
2023-03-11T21:22:04.124Z,68.00
2023-03-11T21:24:35.079Z,68.09
2023-03-11T21:27:08.682Z,68.04
2023-03-11T21:29:40.401Z,68.04
2023-03-11T21:32:12.732Z,68.14
2023-03-11T21:34:48.003Z,68.13
2023-03-11T21:37:24.455Z,68.23
2023-03-11T21:39:57.517Z,68.30
2023-03-11T21:42:48.061Z,68.24
2023-03-11T21:45:23.048Z,68.50
2023-03-11T21:47:58.867Z,68.47
2023-03-11T21:50:41.938Z,68.46
2023-03-11T21:53:19.510Z,68.55
2023-03-11T21:56:13.313Z,68.65
2023-03-11T21:58:53.882Z,68.84
2023-03-11T22:01:51.817Z,68.74
2023-03-11T22:04:52.495Z,68.80
2023-03-11T22:07:32.491Z,68.86
2023-03-11T22:10:10.622Z,68.82
2023-03-11T22:12:42.470Z,68.84
2023-03-11T22:15:18.500Z,68.90
2023-03-11T22:18:01.320Z,69.05
2023-03-11T22:21:15.491Z,69.11
2023-03-11T22:23:51.574Z,69.15
2023-03-11T22:26:28.290Z,69.13
2023-03-11T22:29:09.100Z,69.19
2023-03-11T22:31:44.550Z,69.20
2023-03-11T22:34:17.178Z,69.29
2023-03-11T22:36:49.819Z,69.24
2023-03-11T22:39:39.613Z,69.25
2023-03-11T22:42:10.829Z,69.41
2023-03-11T22:45:01.132Z,69.28
2023-03-11T22:47:36.660Z,69.31
2023-03-11T22:50:12.288Z,69.27
2023-03-11T22:52:45.576Z,69.32
2023-03-11T22:55:21.755Z,69.32
2023-03-11T22:58:05.906Z,69.41
2023-03-11T23:00:39.052Z,69.42
2023-03-11T23:03:17.546Z,69.44
2023-03-11T23:05:54.019Z,69.46
2023-03-11T23:08:30.956Z,69.37
2023-03-11T23:11:09.009Z,69.33
2023-03-11T23:13:46.339Z,69.43
2023-03-11T23:16:26.598Z,69.41
2023-03-11T23:19:03.706Z,69.42
2023-03-11T23:21:44.357Z,69.40
2023-03-11T23:24:16.338Z,69.48
2023-03-11T23:26:45.711Z,69.50
2023-03-11T23:29:15.063Z,69.45
2023-03-11T23:31:44.112Z,69.53
2023-03-11T23:34:13.253Z,69.47
2023-03-11T23:36:48.591Z,69.50
2023-03-11T23:39:21.253Z,69.57
2023-03-11T23:41:53.686Z,69.63
2023-03-11T23:44:24.274Z,69.63
2023-03-11T23:46:55.384Z,69.73
2023-03-11T23:49:27.560Z,69.74
2023-03-11T23:51:56.655Z,69.82
2023-03-11T23:54:26.191Z,69.77
2023-03-11T23:56:58.742Z,69.80
2023-03-11T23:59:33.609Z,69.88
